Maryland METAR Reports


Distance/Direction noted is from Ellicott City, MD as the crow flies

KCBE - Cumberland - 118 miles WNW
Updated: Fri, 10/31/2014 11:58 PM
Overcast
Overcast
 Wind from calm
Wind: Calm
Temperature: 45°F
Dew Point: 43°F
Humidity: 93%
Barometer: 29.91 inHg
Clouds: Overcast
Visibility: 4 miles
Cloud Details: Partly Cloudy 700 ft
Overcast 1400 ft
2014/11/01 03:58 KCBE 010358Z AUTO 00000KT 4SM SCT007 OVC014 07/06 A2991 RMK AO1
KHGR - Hagerstown - 57 miles NW
Updated: Fri, 10/31/2014 11:53 PM
Overcast
Overcast
 Wind from N
Wind: N 5 mph
Temperature: 46°F
Wind Chill: 44°F
Dew Point: 37°F
Humidity: 71%
Barometer: 29.86 inHg
Clouds: Overcast
Visibility: 10 miles
Cloud Details: Mostly Cloudy 6500 ft
Overcast 11000 ft
2014/11/01 03:53 KHGR 010353Z AUTO 35004KT 10SM BKN065 OVC110 08/03 A2986 RMK AO2 SLP123 T00830028
 
KFDK - Frederick - 34 miles NW
Updated: Fri, 10/31/2014 11:55 PM
Clear
Clear
 Wind from N
Wind: N 3 mph
Temperature: 45°F
Dew Point: 37°F
Humidity: 76%
Barometer: 29.87 inHg
Clouds: Clear
Visibility: 10 miles
2014/11/01 03:55 KFDK 010355Z AUTO 01003KT 10SM CLR 07/03 A2987 RMK AO2
KGAI - Gaithersburg - 26 miles SW
Updated: Sat, 11/01/2014 12:15 AM
Clear
Clear
 Wind from NNE
Wind: NNE 3 mph
Temperature: 45°F
Dew Point: 34°F
Humidity: 66%
Barometer: 29.87 inHg
Clouds: Clear
Visibility: 10 miles
2014/11/01 04:15 KGAI 010415Z 02003KT 10SM CLR 07/01 A2987 RMK AO1
 
KBWI - BWI Airport - 15 miles SE
Updated: Fri, 10/31/2014 11:54 PM
Mostly Cloudy
Mostly Cloudy
 Wind from N
Wind: N 5 mph
Temperature: 46°F
Wind Chill: 44°F
Dew Point: 36°F
Humidity: 66%
Barometer: 29.83 inHg
Clouds: Mostly Cloudy
Visibility: 10 miles
Cloud Details: Mostly Cloudy 4000 ft
Mostly Cloudy 4900 ft
Mostly Cloudy 6000 ft
2014/11/01 03:54 KBWI 010354Z 35004KT 10SM BKN040 BKN049 BKN060 08/02 A2983 RMK AO2 SLP100 T00830022 $
KNAK - Annapolis - 32 miles SSE
Updated: Fri, 10/31/2014 11:54 PM
Partly Cloudy
Partly Cloudy
 Wind from N
Wind: N 9 mph
Temperature: 50°F
Wind Chill: 46°F
Dew Point: 41°F
Humidity: 71%
Barometer: 29.82 inHg
Clouds: Partly Cloudy
Visibility: 10 miles
Cloud Details: Partly Cloudy 6000 ft
2014/11/01 03:54 KNAK 010354Z AUTO 35008KT 10SM SCT060 10/05 A2982 RMK AO2 SLP099 T01000050
 
KESN - Easton - 63 miles SE
Updated: Sat, 11/01/2014 12:11 AM
Overcast
Overcast
 Wind from N
Wind: N 6 mph
Temperature: 50°F
Wind Chill: 48°F
Dew Point: 41°F
Humidity: 71%
Barometer: 29.84 inHg
Clouds: Overcast
Visibility: 10 miles
Cloud Details: Mostly Cloudy 4600 ft
Overcast 6000 ft
2014/11/01 04:11 KESN 010411Z AUTO 01005KT 10SM BKN046 OVC060 10/05 A2984 RMK AO2 T00950051
KSBY - Salisbury - 112 miles SE
Updated: Fri, 10/31/2014 11:54 PM
Few Clouds
Few Clouds
 Wind from NNW
Wind: NNW 8 mph
Temperature: 50°F
Wind Chill: 47°F
Dew Point: 41°F
Humidity: 71%
Barometer: 29.77 inHg
Clouds: Few Clouds
Visibility: 10 miles
Cloud Details: Few Clouds 6500 ft
2014/11/01 03:54 KSBY 010354Z AUTO 33007KT 10SM FEW065 10/05 A2977 RMK AO2 SLP082 T01000050